Terminal Aerodrome Forecast
Issued by NWS

Home | Current Version | Previous Version | Text Only | Print | Product List | Glossary On
Versions: 1 2 3 4 5 6 7 8 9 10 11 12 13 14 15 16 17 18
000
FTUS46 KSEW 050500
TAFHQM
TAF
KHQM 050520Z 0506/0606 18008KT P6SM VCSH BKN050
     FM051300 21010KT P6SM -SHRA BKN018 OVC035
     FM051800 24015KT P6SM -SHRA SCT020 BKN035=

USA.gov is the U.S. government's official web portal to all federal, state and local government web resources and services.